sensor_id;sensor_type;location;lat;lon;timestamp;pressure;altitude;pressure_sealevel;temperature;humidity
74544;BME280;63016;55.030;38.710;2023-05-17T00:01:43;100648.50;;;9.94;40.93
74544;BME280;63016;55.030;38.710;2023-05-17T00:04:09;100653.06;;;9.92;41.59
74544;BME280;63016;55.030;38.710;2023-05-17T00:06:34;100649.75;;;9.90;41.35
74544;BME280;63016;55.030;38.710;2023-05-17T00:09:00;100642.09;;;9.88;41.18
74544;BME280;63016;55.030;38.710;2023-05-17T00:11:25;100647.56;;;9.85;40.96
74544;BME280;63016;55.030;38.710;2023-05-17T00:13:51;100644.72;;;9.78;41.23
74544;BME280;63016;55.030;38.710;2023-05-17T00:16:16;100654.03;;;9.81;41.32
74544;BME280;63016;55.030;38.710;2023-05-17T00:18:42;100641.72;;;9.73;41.15
74544;BME280;63016;55.030;38.710;2023-05-17T00:21:07;100641.03;;;9.71;40.81
74544;BME280;63016;55.030;38.710;2023-05-17T00:23:33;100655.44;;;9.66;41.07
74544;BME280;63016;55.030;38.710;2023-05-17T00:25:58;100652.31;;;9.62;40.49
74544;BME280;63016;55.030;38.710;2023-05-17T00:28:24;100650.13;;;9.58;40.96
74544;BME280;63016;55.030;38.710;2023-05-17T00:30:49;100647.13;;;9.52;41.04
74544;BME280;63016;55.030;38.710;2023-05-17T00:33:15;100645.63;;;9.50;40.89
74544;BME280;63016;55.030;38.710;2023-05-17T00:35:40;100639.03;;;9.46;41.26
74544;BME280;63016;55.030;38.710;2023-05-17T00:38:06;100639.44;;;9.41;41.51
74544;BME280;63016;55.030;38.710;2023-05-17T00:40:31;100642.47;;;9.46;41.57
74544;BME280;63016;55.030;38.710;2023-05-17T00:42:57;100637.66;;;9.42;41.38
74544;BME280;63016;55.030;38.710;2023-05-17T00:45:22;100639.44;;;9.41;41.56
74544;BME280;63016;55.030;38.710;2023-05-17T00:47:48;100648.78;;;9.44;41.88
74544;BME280;63016;55.030;38.710;2023-05-17T00:50:13;100649.59;;;9.44;41.71
74544;BME280;63016;55.030;38.710;2023-05-17T00:52:39;100652.34;;;9.43;41.10
74544;BME280;63016;55.030;38.710;2023-05-17T00:55:04;100650.16;;;9.38;41.20
74544;BME280;63016;55.030;38.710;2023-05-17T00:57:30;100655.38;;;9.38;40.71
74544;BME280;63016;55.030;38.710;2023-05-17T00:59:56;100658.41;;;9.34;41.13
74544;BME280;63016;55.030;38.710;2023-05-17T01:02:23;100653.59;;;9.29;41.48
74544;BME280;63016;55.030;38.710;2023-05-17T01:04:48;100664.28;;;9.26;41.28
74544;BME280;63016;55.030;38.710;2023-05-17T01:07:15;100663.06;;;9.20;40.95
74544;BME280;63016;55.030;38.710;2023-05-17T01:09:42;100651.69;;;9.12;41.02
74544;BME280;63016;55.030;38.710;2023-05-17T01:12:31;100663.63;;;9.14;40.75
74544;BME280;63016;55.030;38.710;2023-05-17T01:15:14;100670.72;;;9.12;41.82
74544;BME280;63016;55.030;38.710;2023-05-17T01:20:46;100669.09;;;9.11;41.77
74544;BME280;63016;55.030;38.710;2023-05-17T01:26:18;100671.84;;;9.10;41.74
74544;BME280;63016;55.030;38.710;2023-05-17T01:28:50;100677.31;;;9.07;41.79
74544;BME280;63016;55.030;38.710;2023-05-17T01:31:17;100675.78;;;9.04;41.70
74544;BME280;63016;55.030;38.710;2023-05-17T01:33:42;100677.84;;;9.00;41.84
74544;BME280;63016;55.030;38.710;2023-05-17T01:36:08;100678.94;;;8.98;41.18
74544;BME280;63016;55.030;38.710;2023-05-17T01:38:34;100672.34;;;8.94;41.31
74544;BME280;63016;55.030;38.710;2023-05-17T01:43:55;100668.53;;;8.88;42.77
74544;BME280;63016;55.030;38.710;2023-05-17T01:46:38;100669.91;;;8.92;42.31
74544;BME280;63016;55.030;38.710;2023-05-17T01:49:23;100683.59;;;8.94;42.71
74544;BME280;63016;55.030;38.710;2023-05-17T01:52:17;100676.75;;;8.93;42.48
74544;BME280;63016;55.030;38.710;2023-05-17T01:54:49;100676.47;;;8.96;42.42
74544;BME280;63016;55.030;38.710;2023-05-17T01:57:18;100667.72;;;8.97;42.31
74544;BME280;63016;55.030;38.710;2023-05-17T01:59:45;100681.94;;;9.03;42.12
74544;BME280;63016;55.030;38.710;2023-05-17T02:02:12;100681.00;;;9.04;41.90
74544;BME280;63016;55.030;38.710;2023-05-17T02:17:31;100685.31;;;9.71;47.34
74544;BME280;63016;55.030;38.710;2023-05-17T02:19:57;100683.13;;;9.76;45.99
74544;BME280;63016;55.030;38.710;2023-05-17T02:22:22;100689.56;;;9.82;45.87
74544;BME280;63016;55.030;38.710;2023-05-17T02:24:48;100688.47;;;9.85;45.52
74544;BME280;63016;55.030;38.710;2023-05-17T02:27:13;100689.97;;;9.87;45.54
74544;BME280;63016;55.030;38.710;2023-05-17T02:29:38;100690.66;;;9.89;45.28
74544;BME280;63016;55.030;38.710;2023-05-17T02:32:04;100687.75;;;9.92;45.18
74544;BME280;63016;55.030;38.710;2023-05-17T02:34:30;100692.41;;;9.98;45.61
74544;BME280;63016;55.030;38.710;2023-05-17T02:36:56;100693.47;;;10.05;45.53
74544;BME280;63016;55.030;38.710;2023-05-17T03:02:41;100694.50;;;11.05;50.26
74544;BME280;63016;55.030;38.710;2023-05-17T03:20:37;100713.78;;;12.09;51.40
74544;BME280;63016;55.030;38.710;2023-05-17T03:23:03;100707.91;;;12.16;49.68
74544;BME280;63016;55.030;38.710;2023-05-17T03:25:31;100703.34;;;12.18;49.64
74544;BME280;63016;55.030;38.710;2023-05-17T03:27:57;100712.69;;;12.20;48.87
74544;BME280;63016;55.030;38.710;2023-05-17T03:30:22;100720.22;;;12.23;48.91
74544;BME280;63016;55.030;38.710;2023-05-17T03:32:48;100710.72;;;12.22;49.13
74544;BME280;63016;55.030;38.710;2023-05-17T03:35:13;100716.66;;;12.32;48.92
74544;BME280;63016;55.030;38.710;2023-05-17T03:37:39;100722.91;;;12.40;48.77
74544;BME280;63016;55.030;38.710;2023-05-17T03:40:05;100712.97;;;12.43;49.25
74544;BME280;63016;55.030;38.710;2023-05-17T03:42:30;100719.88;;;12.52;49.07
74544;BME280;63016;55.030;38.710;2023-05-17T03:44:56;100731.03;;;12.63;48.64
74544;BME280;63016;55.030;38.710;2023-05-17T03:47:22;100716.63;;;12.67;48.85
74544;BME280;63016;55.030;38.710;2023-05-17T03:49:48;100726.00;;;12.77;48.98
74544;BME280;63016;55.030;38.710;2023-05-17T03:52:14;100720.94;;;12.84;49.09
74544;BME280;63016;55.030;38.710;2023-05-17T03:54:39;100723.09;;;12.97;48.75
74544;BME280;63016;55.030;38.710;2023-05-17T03:57:04;100716.72;;;13.07;48.62
74544;BME280;63016;55.030;38.710;2023-05-17T03:59:30;100709.50;;;13.09;48.79
74544;BME280;63016;55.030;38.710;2023-05-17T04:01:55;100720.22;;;13.24;48.91
74544;BME280;63016;55.030;38.710;2023-05-17T04:04:21;100727.59;;;13.37;48.74
74544;BME280;63016;55.030;38.710;2023-05-17T04:37:04;100736.94;;;15.14;49.62
74544;BME280;63016;55.030;38.710;2023-05-17T04:39:30;100737.09;;;15.36;48.70
74544;BME280;63016;55.030;38.710;2023-05-17T04:41:55;100734.81;;;15.56;48.19
74544;BME280;63016;55.030;38.710;2023-05-17T04:44:21;100738.78;;;15.75;47.62
74544;BME280;63016;55.030;38.710;2023-05-17T04:46:46;100738.66;;;15.91;47.68
74544;BME280;63016;55.030;38.710;2023-05-17T04:49:12;100735.84;;;16.07;47.31
74544;BME280;63016;55.030;38.710;2023-05-17T04:51:38;100736.66;;;16.23;47.36
74544;BME280;63016;55.030;38.710;2023-05-17T04:54:04;100738.28;;;16.38;47.06
74544;BME280;63016;55.030;38.710;2023-05-17T04:56:34;100740.19;;;16.59;47.13
74544;BME280;63016;55.030;38.710;2023-05-17T04:59:01;100740.91;;;16.83;47.36
74544;BME280;63016;55.030;38.710;2023-05-17T05:01:27;100747.84;;;17.05;46.93
74544;BME280;63016;55.030;38.710;2023-05-17T05:03:56;100743.75;;;17.24;46.63
74544;BME280;63016;55.030;38.710;2023-05-17T05:06:22;100749.63;;;17.41;46.45
74544;BME280;63016;55.030;38.710;2023-05-17T05:08:47;100744.88;;;17.58;46.32
74544;BME280;63016;55.030;38.710;2023-05-17T05:11:13;100741.81;;;17.76;46.36
74544;BME280;63016;55.030;38.710;2023-05-17T05:13:38;100746.78;;;17.92;45.99
74544;BME280;63016;55.030;38.710;2023-05-17T05:16:06;100744.47;;;18.10;46.04
74544;BME280;63016;55.030;38.710;2023-05-17T05:18:31;100748.47;;;18.34;46.07
74544;BME280;63016;55.030;38.710;2023-05-17T05:20:57;100745.94;;;18.54;45.85
74544;BME280;63016;55.030;38.710;2023-05-17T05:23:23;100751.13;;;18.75;45.57
74544;BME280;63016;55.030;38.710;2023-05-17T05:25:49;100745.28;;;18.93;45.75
74544;BME280;63016;55.030;38.710;2023-05-17T05:28:15;100751.84;;;19.17;45.49
74544;BME280;63016;55.030;38.710;2023-05-17T05:30:40;100749.22;;;19.37;45.78
74544;BME280;63016;55.030;38.710;2023-05-17T05:33:06;100730.91;;;19.56;45.44
74544;BME280;63016;55.030;38.710;2023-05-17T05:35:31;100752.09;;;19.82;45.10
74544;BME280;63016;55.030;38.710;2023-05-17T05:37:57;100750.28;;;20.02;45.18
74544;BME280;63016;55.030;38.710;2023-05-17T05:40:23;100751.25;;;20.21;44.73
74544;BME280;63016;55.030;38.710;2023-05-17T05:42:49;100760.56;;;20.44;44.63
74544;BME280;63016;55.030;38.710;2023-05-17T05:45:14;100758.66;;;20.64;44.71
74544;BME280;63016;55.030;38.710;2023-05-17T05:47:40;100764.28;;;20.88;44.48
74544;BME280;63016;55.030;38.710;2023-05-17T05:50:07;100766.63;;;21.09;44.47
74544;BME280;63016;55.030;38.710;2023-05-17T05:52:33;100756.50;;;21.31;44.05
74544;BME280;63016;55.030;38.710;2023-05-17T05:54:58;100762.28;;;21.53;43.92
74544;BME280;63016;55.030;38.710;2023-05-17T05:57:24;100753.47;;;21.77;43.74
74544;BME280;63016;55.030;38.710;2023-05-17T05:59:50;100753.06;;;21.99;43.67
74544;BME280;63016;55.030;38.710;2023-05-17T06:02:15;100750.84;;;22.21;43.34
74544;BME280;63016;55.030;38.710;2023-05-17T06:04:41;100750.84;;;22.39;43.21
74544;BME280;63016;55.030;38.710;2023-05-17T06:07:07;100756.97;;;22.58;43.18
74544;BME280;63016;55.030;38.710;2023-05-17T06:09:33;100756.91;;;22.76;42.99
74544;BME280;63016;55.030;38.710;2023-05-17T06:11:58;100752.63;;;22.94;42.47
74544;BME280;63016;55.030;38.710;2023-05-17T06:14:25;100758.34;;;23.09;42.57
74544;BME280;63016;55.030;38.710;2023-05-17T06:16:50;100755.03;;;23.25;42.49
74544;BME280;63016;55.030;38.710;2023-05-17T06:19:16;100757.41;;;23.45;42.11
74544;BME280;63016;55.030;38.710;2023-05-17T06:21:41;100751.03;;;23.58;42.44
74544;BME280;63016;55.030;38.710;2023-05-17T06:24:08;100755.25;;;23.77;42.19
74544;BME280;63016;55.030;38.710;2023-05-17T06:26:34;100761.50;;;23.95;42.04
74544;BME280;63016;55.030;38.710;2023-05-17T06:28:59;100765.78;;;24.07;41.43
74544;BME280;63016;55.030;38.710;2023-05-17T06:31:25;100758.59;;;24.20;41.47
74544;BME280;63016;55.030;38.710;2023-05-17T06:33:50;100753.22;;;24.31;41.34
74544;BME280;63016;55.030;38.710;2023-05-17T06:36:16;100760.44;;;24.43;41.37
74544;BME280;63016;55.030;38.710;2023-05-17T06:38:41;100761.31;;;24.60;40.93
74544;BME280;63016;55.030;38.710;2023-05-17T06:41:07;100762.09;;;24.72;40.55
74544;BME280;63016;55.030;38.710;2023-05-17T06:43:33;100764.94;;;24.82;40.61
74544;BME280;63016;55.030;38.710;2023-05-17T06:45:59;100761.31;;;24.88;40.10
74544;BME280;63016;55.030;38.710;2023-05-17T06:48:25;100765.69;;;24.95;39.86
74544;BME280;63016;55.030;38.710;2023-05-17T06:50:50;100763.22;;;25.05;39.76
74544;BME280;63016;55.030;38.710;2023-05-17T06:53:16;100773.63;;;25.18;40.00
74544;BME280;63016;55.030;38.710;2023-05-17T06:55:41;100771.13;;;25.28;39.69
74544;BME280;63016;55.030;38.710;2023-05-17T06:58:07;100769.66;;;25.37;39.18
74544;BME280;63016;55.030;38.710;2023-05-17T07:00:33;100771.41;;;25.44;38.64
74544;BME280;63016;55.030;38.710;2023-05-17T07:02:58;100771.47;;;25.49;38.99
74544;BME280;63016;55.030;38.710;2023-05-17T07:05:24;100768.38;;;25.57;38.11
74544;BME280;63016;55.030;38.710;2023-05-17T07:07:50;100765.50;;;25.58;38.11
74544;BME280;63016;55.030;38.710;2023-05-17T07:10:15;100776.81;;;25.66;38.78
74544;BME280;63016;55.030;38.710;2023-05-17T07:12:41;100764.84;;;25.68;37.93
74544;BME280;63016;55.030;38.710;2023-05-17T07:15:06;100770.38;;;25.78;38.32
74544;BME280;63016;55.030;38.710;2023-05-17T07:17:32;100771.25;;;25.84;37.85
74544;BME280;63016;55.030;38.710;2023-05-17T07:19:57;100760.28;;;25.85;38.21
74544;BME280;63016;55.030;38.710;2023-05-17T07:22:23;100770.59;;;25.94;38.24
74544;BME280;63016;55.030;38.710;2023-05-17T07:24:49;100762.63;;;25.99;38.08
74544;BME280;63016;55.030;38.710;2023-05-17T07:27:15;100755.81;;;26.08;38.25
74544;BME280;63016;55.030;38.710;2023-05-17T07:29:41;100749.53;;;26.19;37.85
74544;BME280;63016;55.030;38.710;2023-05-17T07:32:07;100751.72;;;26.22;37.49
74544;BME280;63016;55.030;38.710;2023-05-17T07:34:34;100753.66;;;26.27;37.64
74544;BME280;63016;55.030;38.710;2023-05-17T07:37:01;100755.56;;;26.31;37.48
74544;BME280;63016;55.030;38.710;2023-05-17T07:39:26;100755.00;;;26.29;37.24
74544;BME280;63016;55.030;38.710;2023-05-17T07:41:52;100752.09;;;26.31;37.73
74544;BME280;63016;55.030;38.710;2023-05-17T07:44:17;100749.22;;;26.37;37.40
74544;BME280;63016;55.030;38.710;2023-05-17T07:46:43;100751.16;;;26.42;37.37
74544;BME280;63016;55.030;38.710;2023-05-17T07:49:08;100751.50;;;26.46;37.13
74544;BME280;63016;55.030;38.710;2023-05-17T07:51:34;100745.78;;;26.42;37.13
74544;BME280;63016;55.030;38.710;2023-05-17T07:54:00;100745.78;;;26.42;37.15
74544;BME280;63016;55.030;38.710;2023-05-17T07:56:28;100749.84;;;26.45;37.27
74544;BME280;63016;55.030;38.710;2023-05-17T07:58:54;100745.44;;;26.55;37.08
74544;BME280;63016;55.030;38.710;2023-05-17T08:01:19;100752.72;;;26.60;37.32
74544;BME280;63016;55.030;38.710;2023-05-17T08:03:45;100750.13;;;26.65;37.08
74544;BME280;63016;55.030;38.710;2023-05-17T08:06:16;100750.41;;;26.69;36.67
74544;BME280;63016;55.030;38.710;2023-05-17T08:08:42;100750.41;;;26.69;36.46
74544;BME280;63016;55.030;38.710;2023-05-17T08:11:08;100748.56;;;26.69;36.34
74544;BME280;63016;55.030;38.710;2023-05-17T08:13:34;100754.66;;;26.64;36.38
74544;BME280;63016;55.030;38.710;2023-05-17T08:16:00;100751.66;;;26.61;36.40
74544;BME280;63016;55.030;38.710;2023-05-17T08:18:30;100750.13;;;26.65;36.40
74544;BME280;63016;55.030;38.710;2023-05-17T08:20:56;100747.22;;;26.72;36.25
74544;BME280;63016;55.030;38.710;2023-05-17T08:23:22;100744.59;;;26.77;35.98
74544;BME280;63016;55.030;38.710;2023-05-17T08:25:47;100741.44;;;26.80;36.31
74544;BME280;63016;55.030;38.710;2023-05-17T08:28:13;100731.84;;;26.84;36.21
74544;BME280;63016;55.030;38.710;2023-05-17T08:30:38;100744.69;;;26.87;35.99
74544;BME280;63016;55.030;38.710;2023-05-17T08:33:04;100741.22;;;26.86;36.01
74544;BME280;63016;55.030;38.710;2023-05-17T08:35:29;100735.84;;;26.86;35.85
74544;BME280;63016;55.030;38.710;2023-05-17T08:37:56;100732.91;;;26.88;35.89
74544;BME280;63016;55.030;38.710;2023-05-17T08:40:21;100730.81;;;26.90;35.17
74544;BME280;63016;55.030;38.710;2023-05-17T08:42:49;100725.78;;;26.94;35.33
74544;BME280;63016;55.030;38.710;2023-05-17T08:45:15;100725.50;;;26.95;35.45
74544;BME280;63016;55.030;38.710;2023-05-17T08:47:42;100725.25;;;26.97;35.41
74544;BME280;63016;55.030;38.710;2023-05-17T08:50:08;100728.69;;;26.92;35.34
74544;BME280;63016;55.030;38.710;2023-05-17T08:52:34;100731.31;;;26.87;35.23
74544;BME280;63016;55.030;38.710;2023-05-17T08:55:01;100730.50;;;26.86;35.43
74544;BME280;63016;55.030;38.710;2023-05-17T08:57:30;100723.59;;;26.90;35.67
74544;BME280;63016;55.030;38.710;2023-05-17T08:59:57;100729.22;;;26.89;35.45
74544;BME280;63016;55.030;38.710;2023-05-17T09:02:25;100730.06;;;26.95;35.57
74544;BME280;63016;55.030;38.710;2023-05-17T09:04:51;100716.66;;;26.95;34.88
74544;BME280;63016;55.030;38.710;2023-05-17T09:07:23;100716.13;;;26.98;35.33
74544;BME280;63016;55.030;38.710;2023-05-17T09:09:54;100721.00;;;27.01;35.21
74544;BME280;63016;55.030;38.710;2023-05-17T09:12:20;100724.69;;;26.95;35.06
74544;BME280;63016;55.030;38.710;2023-05-17T09:14:47;100717.16;;;26.91;34.87
74544;BME280;63016;55.030;38.710;2023-05-17T09:17:18;100720.56;;;26.82;34.66
74544;BME280;63016;55.030;38.710;2023-05-17T09:19:47;100710.59;;;26.77;35.69
74544;BME280;63016;55.030;38.710;2023-05-17T09:22:17;100717.63;;;26.83;35.65
74544;BME280;63016;55.030;38.710;2023-05-17T09:24:43;100711.28;;;26.89;35.38
74544;BME280;63016;55.030;38.710;2023-05-17T09:27:13;100707.25;;;26.92;35.36
74544;BME280;63016;55.030;38.710;2023-05-17T09:29:39;100709.19;;;26.97;35.34
74544;BME280;63016;55.030;38.710;2023-05-17T09:32:16;100698.00;;;27.05;35.63
74544;BME280;63016;55.030;38.710;2023-05-17T09:34:42;100703.97;;;27.12;34.76
74544;BME280;63016;55.030;38.710;2023-05-17T09:37:14;100702.94;;;27.13;34.96
74544;BME280;63016;55.030;38.710;2023-05-17T09:39:40;100702.94;;;27.13;34.57
74544;BME280;63016;55.030;38.710;2023-05-17T09:42:06;100699.19;;;27.14;34.64
74544;BME280;63016;55.030;38.710;2023-05-17T09:44:44;100705.34;;;27.14;35.12
74544;BME280;63016;55.030;38.710;2023-05-17T09:47:10;100700.41;;;27.06;34.20
74544;BME280;63016;55.030;38.710;2023-05-17T09:49:35;100697.75;;;27.06;34.70
74544;BME280;63016;55.030;38.710;2023-05-17T09:52:07;100698.06;;;27.10;34.47
74544;BME280;63016;55.030;38.710;2023-05-17T09:54:36;100691.16;;;27.14;34.76
74544;BME280;63016;55.030;38.710;2023-05-17T09:57:02;100695.19;;;27.16;34.48
74544;BME280;63016;55.030;38.710;2023-05-17T09:59:34;100689.56;;;27.18;34.21
74544;BME280;63016;55.030;38.710;2023-05-17T10:02:00;100697.63;;;27.18;34.44
74544;BME280;63016;55.030;38.710;2023-05-17T10:04:28;100690.38;;;27.19;34.52
74544;BME280;63016;55.030;38.710;2023-05-17T10:06:55;100687.91;;;27.12;34.21
74544;BME280;63016;55.030;38.710;2023-05-17T10:09:21;100685.53;;;27.15;34.18
74544;BME280;63016;55.030;38.710;2023-05-17T10:11:47;100682.59;;;27.17;34.20
74544;BME280;63016;55.030;38.710;2023-05-17T10:14:20;100678.34;;;27.21;34.27
74544;BME280;63016;55.030;38.710;2023-05-17T10:16:48;100686.94;;;27.23;34.36
74544;BME280;63016;55.030;38.710;2023-05-17T10:19:13;100683.69;;;27.21;33.49
74544;BME280;63016;55.030;38.710;2023-05-17T10:21:40;100684.50;;;27.22;33.96
74544;BME280;63016;55.030;38.710;2023-05-17T10:24:07;100680.78;;;27.23;33.98
74544;BME280;63016;55.030;38.710;2023-05-17T10:26:35;100672.16;;;27.21;33.86
74544;BME280;63016;55.030;38.710;2023-05-17T10:29:04;100677.78;;;27.19;34.34
74544;BME280;63016;55.030;38.710;2023-05-17T10:31:31;100682.59;;;27.17;34.09
74544;BME280;63016;55.030;38.710;2023-05-17T10:34:04;100673.50;;;27.18;34.28
74544;BME280;63016;55.030;38.710;2023-05-17T10:36:32;100674.31;;;27.19;34.05
74544;BME280;63016;55.030;38.710;2023-05-17T10:38:58;100667.09;;;27.24;33.71
74544;BME280;63016;55.030;38.710;2023-05-17T10:41:29;100656.44;;;27.29;33.98
74544;BME280;63016;55.030;38.710;2023-05-17T10:43:56;100657.53;;;27.33;33.96
74544;BME280;63016;55.030;38.710;2023-05-17T10:46:22;100659.69;;;27.36;33.40
74544;BME280;63016;55.030;38.710;2023-05-17T10:48:52;100655.66;;;27.34;33.75
74544;BME280;63016;55.030;38.710;2023-05-17T10:51:23;100654.84;;;27.33;33.69
74544;BME280;63016;55.030;38.710;2023-05-17T10:56:30;100647.78;;;27.22;34.10
74544;BME280;63016;55.030;38.710;2023-05-17T10:59:22;100645.22;;;27.32;34.75
74544;BME280;63016;55.030;38.710;2023-05-17T11:02:04;100656.47;;;27.34;34.37
74544;BME280;63016;55.030;38.710;2023-05-17T11:10:10;100656.00;;;27.48;34.53
74544;BME280;63016;55.030;38.710;2023-05-17T11:12:44;100650.06;;;27.40;33.22
74544;BME280;63016;55.030;38.710;2023-05-17T11:15:11;100656.16;;;27.31;32.98
74544;BME280;63016;55.030;38.710;2023-05-17T11:22:49;100653.72;;;27.24;33.85
74544;BME280;63016;55.030;38.710;2023-05-17T11:25:15;100653.47;;;27.31;33.61
74544;BME280;63016;55.030;38.710;2023-05-17T11:27:49;100648.72;;;27.38;33.51
74544;BME280;63016;55.030;38.710;2023-05-17T11:30:33;100636.44;;;27.47;34.17
74544;BME280;63016;55.030;38.710;2023-05-17T11:33:01;100641.84;;;27.52;33.39
74544;BME280;63016;55.030;38.710;2023-05-17T11:35:30;100638.66;;;27.60;33.62
74544;BME280;63016;55.030;38.710;2023-05-17T11:38:15;100640.56;;;27.70;34.41
74544;BME280;63016;55.030;38.710;2023-05-17T11:40:47;100626.69;;;27.78;33.16
74544;BME280;63016;55.030;38.710;2023-05-17T11:43:16;100637.19;;;27.85;35.38
74544;BME280;63016;55.030;38.710;2023-05-17T11:45:47;100636.38;;;27.84;33.15
74544;BME280;63016;55.030;38.710;2023-05-17T11:48:14;100636.94;;;27.86;32.82
74544;BME280;63016;55.030;38.710;2023-05-17T11:50:41;100632.38;;;27.87;32.89
74544;BME280;63016;55.030;38.710;2023-05-17T11:53:07;100621.13;;;27.90;32.47
74544;BME280;63016;55.030;38.710;2023-05-17T11:55:44;100614.91;;;27.84;33.29
74544;BME280;63016;55.030;38.710;2023-05-17T11:58:13;100614.09;;;27.79;32.20
74544;BME280;63016;55.030;38.710;2023-05-17T12:00:40;100611.06;;;27.70;31.97
74544;BME280;63016;55.030;38.710;2023-05-17T12:03:25;100615.28;;;27.56;32.97
74544;BME280;63016;55.030;38.710;2023-05-17T12:06:00;100601.06;;;27.50;32.77
74544;BME280;63016;55.030;38.710;2023-05-17T12:08:27;100599.75;;;27.53;32.63
74544;BME280;63016;55.030;38.710;2023-05-17T12:10:53;100595.50;;;27.57;32.59
74544;BME280;63016;55.030;38.710;2023-05-17T12:13:20;100596.81;;;27.59;32.48
74544;BME280;63016;55.030;38.710;2023-05-17T12:15:55;100592.81;;;27.62;33.12
74544;BME280;63016;55.030;38.710;2023-05-17T12:18:21;100592.31;;;27.70;32.38
74544;BME280;63016;55.030;38.710;2023-05-17T12:20:57;100583.00;;;27.78;32.87
74544;BME280;63016;55.030;38.710;2023-05-17T12:23:37;100582.75;;;27.84;32.67
74544;BME280;63016;55.030;38.710;2023-05-17T12:26:21;100581.16;;;27.93;33.41
74544;BME280;63016;55.030;38.710;2023-05-17T12:28:58;100587.63;;;28.03;32.99
74544;BME280;63016;55.030;38.710;2023-05-17T12:31:33;100586.53;;;28.04;32.80
74544;BME280;63016;55.030;38.710;2023-05-17T12:33:59;100584.13;;;28.02;32.03
74544;BME280;63016;55.030;38.710;2023-05-17T12:36:27;100579.56;;;27.98;32.59
74544;BME280;63016;55.030;38.710;2023-05-17T12:38:54;100586.31;;;28.05;32.64
74544;BME280;63016;55.030;38.710;2023-05-17T12:41:21;100584.66;;;28.04;32.28
74544;BME280;63016;55.030;38.710;2023-05-17T12:43:47;100578.50;;;28.04;32.18
74544;BME280;63016;55.030;38.710;2023-05-17T12:46:15;100577.97;;;28.07;32.66
74544;BME280;63016;55.030;38.710;2023-05-17T12:48:46;100570.75;;;28.07;32.00
74544;BME280;63016;55.030;38.710;2023-05-17T12:51:13;100565.66;;;28.06;31.72
74544;BME280;63016;55.030;38.710;2023-05-17T12:53:43;100569.66;;;28.03;31.86
74544;BME280;63016;55.030;38.710;2023-05-17T12:56:41;100567.25;;;28.07;32.96
74544;BME280;63016;55.030;38.710;2023-05-17T12:59:11;100568.34;;;28.11;31.58
74544;BME280;63016;55.030;38.710;2023-05-17T13:04:09;100562.97;;;28.16;31.88
74544;BME280;63016;55.030;38.710;2023-05-17T13:06:55;100560.81;;;28.13;32.02
74544;BME280;63016;55.030;38.710;2023-05-17T13:09:23;100558.69;;;28.05;31.68
74544;BME280;63016;55.030;38.710;2023-05-17T13:11:55;100563.47;;;27.98;31.60
74544;BME280;63016;55.030;38.710;2023-05-17T13:14:39;100561.31;;;27.95;32.56
74544;BME280;63016;55.030;38.710;2023-05-17T13:17:15;100554.09;;;27.95;32.07
74544;BME280;63016;55.030;38.710;2023-05-17T13:19:41;100563.19;;;27.99;31.97
74544;BME280;63016;55.030;38.710;2023-05-17T13:22:07;100557.31;;;28.02;30.92
74544;BME280;63016;55.030;38.710;2023-05-17T13:24:34;100551.41;;;28.00;31.41
74544;BME280;63016;55.030;38.710;2023-05-17T13:27:01;100556.25;;;28.03;31.61
74544;BME280;63016;55.030;38.710;2023-05-17T13:29:27;100554.63;;;28.02;31.27
74544;BME280;63016;55.030;38.710;2023-05-17T13:31:53;100551.44;;;28.05;31.47
74544;BME280;63016;55.030;38.710;2023-05-17T13:34:18;100543.38;;;28.10;31.85
74544;BME280;63016;55.030;38.710;2023-05-17T13:36:47;100543.41;;;28.21;31.37
74544;BME280;63016;55.030;38.710;2023-05-17T13:39:13;100537.47;;;28.24;31.74
74544;BME280;63016;55.030;38.710;2023-05-17T13:41:39;100535.06;;;28.32;31.81
74544;BME280;63016;55.030;38.710;2023-05-17T13:44:08;100520.63;;;28.38;31.34
74544;BME280;63016;55.030;38.710;2023-05-17T13:46:33;100516.88;;;28.39;31.31
74544;BME280;63016;55.030;38.710;2023-05-17T13:48:59;100524.66;;;28.46;31.35
74544;BME280;63016;55.030;38.710;2023-05-17T13:51:26;100524.38;;;28.53;31.35
74544;BME280;63016;55.030;38.710;2023-05-17T13:53:52;100517.66;;;28.55;31.04
74544;BME280;63016;55.030;38.710;2023-05-17T13:56:18;100520.06;;;28.57;30.68
74544;BME280;63016;55.030;38.710;2023-05-17T13:58:44;100527.88;;;28.58;30.93
74544;BME280;63016;55.030;38.710;2023-05-17T14:01:09;100529.75;;;28.63;31.46
74544;BME280;63016;55.030;38.710;2023-05-17T14:03:35;100523.31;;;28.64;30.56
74544;BME280;63016;55.030;38.710;2023-05-17T14:06:04;100517.38;;;28.67;31.62
74544;BME280;63016;55.030;38.710;2023-05-17T14:08:30;100523.28;;;28.74;30.78
74544;BME280;63016;55.030;38.710;2023-05-17T14:10:55;100520.06;;;28.82;31.00
74544;BME280;63016;55.030;38.710;2023-05-17T14:13:21;100512.00;;;28.87;30.77
74544;BME280;63016;55.030;38.710;2023-05-17T14:15:47;100515.22;;;28.94;30.90
74544;BME280;63016;55.030;38.710;2023-05-17T14:18:12;100518.19;;;28.98;30.48
74544;BME280;63016;55.030;38.710;2023-05-17T14:20:38;100514.66;;;28.92;30.88
74544;BME280;63016;55.030;38.710;2023-05-17T14:23:04;100514.66;;;28.92;30.95
74544;BME280;63016;55.030;38.710;2023-05-17T14:25:30;100518.16;;;28.93;31.12
74544;BME280;63016;55.030;38.710;2023-05-17T14:27:56;100509.03;;;28.99;30.49
74544;BME280;63016;55.030;38.710;2023-05-17T14:30:21;100516.28;;;29.04;30.28
74544;BME280;63016;55.030;38.710;2023-05-17T14:32:47;100510.59;;;29.10;30.26